sensor_id;sensor_type;location;lat;lon;timestamp;P1;durP1;ratioP1;P2;durP2;ratioP2
25667;SDS011;18003;-33.830;151.202;2022-09-09T00:02:15;2.33;;;1.70;;
25667;SDS011;18003;-33.830;151.202;2022-09-09T00:07:49;5.83;;;1.87;;
25667;SDS011;18003;-33.830;151.202;2022-09-09T00:25:59;1.87;;;1.70;;
25667;SDS011;18003;-33.830;151.202;2022-09-09T00:28:31;4.97;;;1.67;;
25667;SDS011;18003;-33.830;151.202;2022-09-09T00:31:13;4.72;;;2.08;;
25667;SDS011;18003;-33.830;151.202;2022-09-09T00:33:44;2.25;;;1.50;;
25667;SDS011;18003;-33.830;151.202;2022-09-09T00:36:17;2.58;;;1.60;;
25667;SDS011;18003;-33.830;151.202;2022-09-09T00:38:49;3.05;;;1.70;;
25667;SDS011;18003;-33.830;151.202;2022-09-09T00:41:26;3.08;;;1.72;;
25667;SDS011;18003;-33.830;151.202;2022-09-09T00:44:16;3.35;;;1.80;;
25667;SDS011;18003;-33.830;151.202;2022-09-09T00:49:37;2.52;;;1.62;;
25667;SDS011;18003;-33.830;151.202;2022-09-09T00:52:23;1.72;;;1.35;;
25667;SDS011;18003;-33.830;151.202;2022-09-09T00:55:13;3.62;;;1.65;;
25667;SDS011;18003;-33.830;151.202;2022-09-09T00:57:38;2.67;;;1.40;;
25667;SDS011;18003;-33.830;151.202;2022-09-09T01:00:19;3.15;;;1.60;;
25667;SDS011;18003;-33.830;151.202;2022-09-09T01:16:46;2.20;;;1.47;;
25667;SDS011;18003;-33.830;151.202;2022-09-09T01:19:20;3.05;;;1.37;;
25667;SDS011;18003;-33.830;151.202;2022-09-09T01:21:54;1.87;;;1.25;;
25667;SDS011;18003;-33.830;151.202;2022-09-09T01:27:00;1.98;;;1.45;;
25667;SDS011;18003;-33.830;151.202;2022-09-09T01:29:32;1.98;;;1.50;;
25667;SDS011;18003;-33.830;151.202;2022-09-09T01:32:03;3.62;;;1.52;;
25667;SDS011;18003;-33.830;151.202;2022-09-09T01:34:50;1.85;;;1.40;;
25667;SDS011;18003;-33.830;151.202;2022-09-09T01:37:21;1.70;;;1.07;;
25667;SDS011;18003;-33.830;151.202;2022-09-09T01:39:51;2.20;;;1.22;;
25667;SDS011;18003;-33.830;151.202;2022-09-09T01:42:21;1.20;;;1.10;;
25667;SDS011;18003;-33.830;151.202;2022-09-09T01:44:51;1.95;;;1.22;;
25667;SDS011;18003;-33.830;151.202;2022-09-09T01:47:21;1.33;;;1.00;;
25667;SDS011;18003;-33.830;151.202;2022-09-09T01:56:25;1.35;;;1.10;;
25667;SDS011;18003;-33.830;151.202;2022-09-09T02:04:39;1.67;;;1.20;;
25667;SDS011;18003;-33.830;151.202;2022-09-09T02:07:35;2.60;;;1.10;;
25667;SDS011;18003;-33.830;151.202;2022-09-09T02:10:11;3.52;;;1.40;;
25667;SDS011;18003;-33.830;151.202;2022-09-09T02:12:42;2.85;;;1.10;;
25667;SDS011;18003;-33.830;151.202;2022-09-09T02:17:52;6.10;;;1.52;;
25667;SDS011;18003;-33.830;151.202;2022-09-09T02:20:23;2.10;;;1.00;;
25667;SDS011;18003;-33.830;151.202;2022-09-09T02:22:54;2.08;;;0.90;;
25667;SDS011;18003;-33.830;151.202;2022-09-09T02:25:26;2.05;;;0.80;;
25667;SDS011;18003;-33.830;151.202;2022-09-09T02:27:57;1.12;;;0.98;;
25667;SDS011;18003;-33.830;151.202;2022-09-09T02:30:27;0.93;;;0.80;;
25667;SDS011;18003;-33.830;151.202;2022-09-09T02:32:58;1.95;;;1.20;;
25667;SDS011;18003;-33.830;151.202;2022-09-09T02:35:30;1.02;;;0.90;;
25667;SDS011;18003;-33.830;151.202;2022-09-09T02:38:04;1.15;;;0.80;;
25667;SDS011;18003;-33.830;151.202;2022-09-09T02:43:04;2.05;;;1.12;;
25667;SDS011;18003;-33.830;151.202;2022-09-09T02:45:42;1.22;;;0.90;;
25667;SDS011;18003;-33.830;151.202;2022-09-09T02:50:59;1.05;;;0.80;;
25667;SDS011;18003;-33.830;151.202;2022-09-09T02:53:30;0.90;;;0.90;;
25667;SDS011;18003;-33.830;151.202;2022-09-09T02:56:08;1.80;;;1.00;;
25667;SDS011;18003;-33.830;151.202;2022-09-09T02:58:47;1.10;;;0.93;;
25667;SDS011;18003;-33.830;151.202;2022-09-09T03:01:18;1.00;;;0.90;;
25667;SDS011;18003;-33.830;151.202;2022-09-09T03:03:48;1.20;;;0.90;;
25667;SDS011;18003;-33.830;151.202;2022-09-09T03:06:18;1.07;;;0.90;;
25667;SDS011;18003;-33.830;151.202;2022-09-09T03:08:49;2.50;;;0.90;;
25667;SDS011;18003;-33.830;151.202;2022-09-09T03:11:19;0.90;;;0.90;;
25667;SDS011;18003;-33.830;151.202;2022-09-09T03:13:49;3.20;;;0.90;;
25667;SDS011;18003;-33.830;151.202;2022-09-09T03:16:19;1.75;;;1.20;;
25667;SDS011;18003;-33.830;151.202;2022-09-09T03:18:49;1.87;;;0.90;;
25667;SDS011;18003;-33.830;151.202;2022-09-09T03:21:19;11.80;;;1.98;;
25667;SDS011;18003;-33.830;151.202;2022-09-09T03:23:49;27.65;;;4.83;;
25667;SDS011;18003;-33.830;151.202;2022-09-09T03:26:19;21.12;;;3.20;;
25667;SDS011;18003;-33.830;151.202;2022-09-09T03:28:49;20.30;;;3.10;;
25667;SDS011;18003;-33.830;151.202;2022-09-09T03:31:20;10.00;;;2.00;;
25667;SDS011;18003;-33.830;151.202;2022-09-09T03:33:50;4.90;;;1.30;;
25667;SDS011;18003;-33.830;151.202;2022-09-09T03:36:20;4.30;;;1.27;;
25667;SDS011;18003;-33.830;151.202;2022-09-09T03:38:50;8.83;;;1.35;;
25667;SDS011;18003;-33.830;151.202;2022-09-09T03:41:21;2.47;;;1.45;;
25667;SDS011;18003;-33.830;151.202;2022-09-09T03:43:51;3.15;;;1.25;;
25667;SDS011;18003;-33.830;151.202;2022-09-09T03:46:22;4.55;;;1.20;;
25667;SDS011;18003;-33.830;151.202;2022-09-09T03:48:53;3.85;;;1.30;;
25667;SDS011;18003;-33.830;151.202;2022-09-09T03:51:23;1.22;;;0.90;;
25667;SDS011;18003;-33.830;151.202;2022-09-09T03:53:53;2.27;;;0.90;;
25667;SDS011;18003;-33.830;151.202;2022-09-09T03:56:24;1.00;;;0.85;;
25667;SDS011;18003;-33.830;151.202;2022-09-09T03:58:54;1.15;;;1.02;;
25667;SDS011;18003;-33.830;151.202;2022-09-09T04:01:24;1.57;;;1.10;;
25667;SDS011;18003;-33.830;151.202;2022-09-09T04:03:55;1.42;;;1.00;;
25667;SDS011;18003;-33.830;151.202;2022-09-09T04:06:25;1.87;;;1.00;;
25667;SDS011;18003;-33.830;151.202;2022-09-09T04:08:56;1.05;;;1.00;;
25667;SDS011;18003;-33.830;151.202;2022-09-09T04:11:27;1.10;;;0.90;;
25667;SDS011;18003;-33.830;151.202;2022-09-09T04:13:57;0.90;;;0.90;;
25667;SDS011;18003;-33.830;151.202;2022-09-09T04:16:27;3.22;;;0.93;;
25667;SDS011;18003;-33.830;151.202;2022-09-09T04:18:57;1.02;;;0.90;;
25667;SDS011;18003;-33.830;151.202;2022-09-09T04:21:27;1.37;;;1.10;;
25667;SDS011;18003;-33.830;151.202;2022-09-09T04:23:57;4.37;;;1.50;;
25667;SDS011;18003;-33.830;151.202;2022-09-09T04:26:27;2.15;;;0.90;;
25667;SDS011;18003;-33.830;151.202;2022-09-09T04:28:57;1.07;;;0.90;;
25667;SDS011;18003;-33.830;151.202;2022-09-09T04:31:27;0.98;;;0.88;;
25667;SDS011;18003;-33.830;151.202;2022-09-09T04:33:58;0.90;;;0.90;;
25667;SDS011;18003;-33.830;151.202;2022-09-09T04:36:32;1.50;;;1.10;;
25667;SDS011;18003;-33.830;151.202;2022-09-09T04:39:02;2.42;;;1.10;;
25667;SDS011;18003;-33.830;151.202;2022-09-09T04:41:32;1.02;;;0.90;;
25667;SDS011;18003;-33.830;151.202;2022-09-09T04:44:02;1.27;;;1.02;;
25667;SDS011;18003;-33.830;151.202;2022-09-09T04:46:32;1.37;;;1.10;;
25667;SDS011;18003;-33.830;151.202;2022-09-09T04:49:02;1.82;;;1.05;;
25667;SDS011;18003;-33.830;151.202;2022-09-09T04:51:32;1.52;;;1.00;;
25667;SDS011;18003;-33.830;151.202;2022-09-09T04:54:03;1.17;;;0.90;;
25667;SDS011;18003;-33.830;151.202;2022-09-09T04:56:33;0.93;;;0.90;;
25667;SDS011;18003;-33.830;151.202;2022-09-09T04:59:03;1.22;;;1.00;;
25667;SDS011;18003;-33.830;151.202;2022-09-09T05:01:33;1.17;;;1.17;;
25667;SDS011;18003;-33.830;151.202;2022-09-09T05:04:03;1.20;;;1.10;;
25667;SDS011;18003;-33.830;151.202;2022-09-09T05:06:33;0.90;;;0.90;;
25667;SDS011;18003;-33.830;151.202;2022-09-09T05:09:03;0.95;;;0.95;;
25667;SDS011;18003;-33.830;151.202;2022-09-09T05:11:33;1.00;;;1.00;;
25667;SDS011;18003;-33.830;151.202;2022-09-09T05:14:06;1.10;;;1.10;;
25667;SDS011;18003;-33.830;151.202;2022-09-09T05:16:37;1.32;;;1.00;;
25667;SDS011;18003;-33.830;151.202;2022-09-09T05:19:07;1.30;;;1.20;;
25667;SDS011;18003;-33.830;151.202;2022-09-09T05:21:37;3.83;;;1.20;;
25667;SDS011;18003;-33.830;151.202;2022-09-09T05:24:08;1.40;;;1.20;;
25667;SDS011;18003;-33.830;151.202;2022-09-09T05:26:38;1.75;;;1.20;;
25667;SDS011;18003;-33.830;151.202;2022-09-09T05:29:08;0.90;;;0.90;;
25667;SDS011;18003;-33.830;151.202;2022-09-09T05:31:38;2.20;;;1.00;;
25667;SDS011;18003;-33.830;151.202;2022-09-09T05:34:08;1.10;;;1.10;;
25667;SDS011;18003;-33.830;151.202;2022-09-09T05:36:38;25.35;;;2.80;;
25667;SDS011;18003;-33.830;151.202;2022-09-09T05:39:08;9.45;;;2.00;;
25667;SDS011;18003;-33.830;151.202;2022-09-09T05:41:38;3.85;;;1.42;;
25667;SDS011;18003;-33.830;151.202;2022-09-09T05:44:08;4.47;;;1.30;;
25667;SDS011;18003;-33.830;151.202;2022-09-09T05:46:38;3.45;;;1.25;;
25667;SDS011;18003;-33.830;151.202;2022-09-09T05:49:08;1.47;;;1.12;;
25667;SDS011;18003;-33.830;151.202;2022-09-09T05:51:38;1.20;;;0.90;;
25667;SDS011;18003;-33.830;151.202;2022-09-09T05:54:12;1.35;;;1.25;;
25667;SDS011;18003;-33.830;151.202;2022-09-09T05:56:42;1.62;;;1.20;;
25667;SDS011;18003;-33.830;151.202;2022-09-09T05:59:12;2.15;;;1.10;;
25667;SDS011;18003;-33.830;151.202;2022-09-09T06:01:42;2.02;;;1.07;;
25667;SDS011;18003;-33.830;151.202;2022-09-09T06:04:12;1.00;;;1.00;;
25667;SDS011;18003;-33.830;151.202;2022-09-09T06:06:42;1.25;;;1.15;;
25667;SDS011;18003;-33.830;151.202;2022-09-09T06:09:12;0.90;;;0.90;;
25667;SDS011;18003;-33.830;151.202;2022-09-09T06:11:42;0.93;;;0.93;;
25667;SDS011;18003;-33.830;151.202;2022-09-09T06:14:12;1.98;;;1.10;;
25667;SDS011;18003;-33.830;151.202;2022-09-09T06:16:46;1.17;;;1.12;;
25667;SDS011;18003;-33.830;151.202;2022-09-09T06:19:16;1.30;;;1.20;;
25667;SDS011;18003;-33.830;151.202;2022-09-09T06:21:47;3.77;;;1.60;;
25667;SDS011;18003;-33.830;151.202;2022-09-09T06:24:17;2.40;;;2.05;;
25667;SDS011;18003;-33.830;151.202;2022-09-09T06:26:47;2.70;;;1.90;;
25667;SDS011;18003;-33.830;151.202;2022-09-09T06:29:17;2.87;;;1.70;;
25667;SDS011;18003;-33.830;151.202;2022-09-09T06:31:47;2.15;;;1.42;;
25667;SDS011;18003;-33.830;151.202;2022-09-09T06:34:17;3.05;;;1.40;;
25667;SDS011;18003;-33.830;151.202;2022-09-09T06:36:48;2.15;;;1.40;;
25667;SDS011;18003;-33.830;151.202;2022-09-09T06:39:18;2.10;;;1.42;;
25667;SDS011;18003;-33.830;151.202;2022-09-09T06:41:48;2.90;;;1.70;;
25667;SDS011;18003;-33.830;151.202;2022-09-09T06:44:19;4.03;;;2.30;;
25667;SDS011;18003;-33.830;151.202;2022-09-09T06:46:49;3.08;;;1.98;;
25667;SDS011;18003;-33.830;151.202;2022-09-09T06:49:19;4.22;;;1.92;;
25667;SDS011;18003;-33.830;151.202;2022-09-09T06:51:49;6.05;;;2.80;;
25667;SDS011;18003;-33.830;151.202;2022-09-09T06:54:19;5.15;;;2.47;;
25667;SDS011;18003;-33.830;151.202;2022-09-09T06:56:50;6.37;;;2.55;;
25667;SDS011;18003;-33.830;151.202;2022-09-09T06:59:20;6.95;;;2.40;;
25667;SDS011;18003;-33.830;151.202;2022-09-09T07:01:50;6.90;;;2.77;;
25667;SDS011;18003;-33.830;151.202;2022-09-09T07:04:21;4.55;;;2.27;;
25667;SDS011;18003;-33.830;151.202;2022-09-09T07:06:51;4.85;;;2.67;;
25667;SDS011;18003;-33.830;151.202;2022-09-09T07:09:21;5.92;;;2.90;;
25667;SDS011;18003;-33.830;151.202;2022-09-09T07:11:51;6.80;;;2.50;;
25667;SDS011;18003;-33.830;151.202;2022-09-09T07:14:21;6.85;;;2.70;;
25667;SDS011;18003;-33.830;151.202;2022-09-09T07:16:51;5.97;;;2.95;;
25667;SDS011;18003;-33.830;151.202;2022-09-09T07:19:23;5.42;;;2.77;;
25667;SDS011;18003;-33.830;151.202;2022-09-09T07:21:53;4.55;;;2.67;;
25667;SDS011;18003;-33.830;151.202;2022-09-09T07:24:22;5.60;;;2.67;;
25667;SDS011;18003;-33.830;151.202;2022-09-09T07:26:54;9.33;;;3.00;;
25667;SDS011;18003;-33.830;151.202;2022-09-09T07:29:24;8.45;;;2.92;;
25667;SDS011;18003;-33.830;151.202;2022-09-09T07:31:53;9.23;;;2.95;;
25667;SDS011;18003;-33.830;151.202;2022-09-09T07:34:24;4.17;;;2.60;;
25667;SDS011;18003;-33.830;151.202;2022-09-09T07:36:54;5.85;;;2.80;;
25667;SDS011;18003;-33.830;151.202;2022-09-09T07:39:24;4.67;;;2.50;;
25667;SDS011;18003;-33.830;151.202;2022-09-09T07:41:55;4.22;;;2.40;;
25667;SDS011;18003;-33.830;151.202;2022-09-09T07:44:25;5.90;;;2.92;;
25667;SDS011;18003;-33.830;151.202;2022-09-09T07:46:55;6.30;;;2.55;;
25667;SDS011;18003;-33.830;151.202;2022-09-09T07:49:45;8.33;;;3.15;;
25667;SDS011;18003;-33.830;151.202;2022-09-09T07:52:16;4.75;;;2.70;;
25667;SDS011;18003;-33.830;151.202;2022-09-09T07:54:46;5.12;;;2.90;;
25667;SDS011;18003;-33.830;151.202;2022-09-09T07:57:16;7.17;;;2.52;;
25667;SDS011;18003;-33.830;151.202;2022-09-09T07:59:46;6.58;;;2.87;;
25667;SDS011;18003;-33.830;151.202;2022-09-09T08:02:17;8.00;;;3.50;;
25667;SDS011;18003;-33.830;151.202;2022-09-09T08:04:47;4.05;;;2.72;;
25667;SDS011;18003;-33.830;151.202;2022-09-09T08:07:18;5.45;;;2.47;;
25667;SDS011;18003;-33.830;151.202;2022-09-09T08:09:48;7.55;;;2.52;;
25667;SDS011;18003;-33.830;151.202;2022-09-09T08:12:18;7.17;;;2.58;;
25667;SDS011;18003;-33.830;151.202;2022-09-09T08:14:48;7.40;;;2.72;;
25667;SDS011;18003;-33.830;151.202;2022-09-09T08:17:18;4.67;;;2.27;;
25667;SDS011;18003;-33.830;151.202;2022-09-09T08:19:48;6.65;;;2.50;;
25667;SDS011;18003;-33.830;151.202;2022-09-09T08:22:19;6.30;;;2.83;;
25667;SDS011;18003;-33.830;151.202;2022-09-09T08:27:19;5.25;;;2.52;;
25667;SDS011;18003;-33.830;151.202;2022-09-09T08:29:49;7.15;;;2.98;;
25667;SDS011;18003;-33.830;151.202;2022-09-09T08:32:19;7.33;;;3.10;;
25667;SDS011;18003;-33.830;151.202;2022-09-09T08:34:49;9.80;;;3.17;;
25667;SDS011;18003;-33.830;151.202;2022-09-09T08:37:19;6.55;;;3.10;;
25667;SDS011;18003;-33.830;151.202;2022-09-09T08:39:49;5.97;;;2.80;;
25667;SDS011;18003;-33.830;151.202;2022-09-09T08:42:33;5.75;;;3.20;;
25667;SDS011;18003;-33.830;151.202;2022-09-09T08:47:56;5.92;;;2.75;;
25667;SDS011;18003;-33.830;151.202;2022-09-09T08:50:39;4.70;;;2.70;;
25667;SDS011;18003;-33.830;151.202;2022-09-09T08:55:56;4.65;;;2.70;;
25667;SDS011;18003;-33.830;151.202;2022-09-09T08:58:27;3.75;;;2.40;;
25667;SDS011;18003;-33.830;151.202;2022-09-09T09:11:23;3.25;;;2.40;;
25667;SDS011;18003;-33.830;151.202;2022-09-09T09:13:58;3.80;;;2.17;;
25667;SDS011;18003;-33.830;151.202;2022-09-09T09:16:38;3.42;;;2.05;;
25667;SDS011;18003;-33.830;151.202;2022-09-09T09:19:19;4.15;;;2.20;;
25667;SDS011;18003;-33.830;151.202;2022-09-09T09:24:45;2.15;;;1.95;;
25667;SDS011;18003;-33.830;151.202;2022-09-09T09:27:15;3.72;;;2.12;;
25667;SDS011;18003;-33.830;151.202;2022-09-09T09:29:55;2.27;;;2.00;;
25667;SDS011;18003;-33.830;151.202;2022-09-09T09:32:28;3.05;;;2.10;;
25667;SDS011;18003;-33.830;151.202;2022-09-09T09:37:30;3.58;;;1.82;;
25667;SDS011;18003;-33.830;151.202;2022-09-09T09:40:09;5.12;;;2.25;;
25667;SDS011;18003;-33.830;151.202;2022-09-09T09:42:57;3.20;;;2.10;;
25667;SDS011;18003;-33.830;151.202;2022-09-09T09:45:33;3.27;;;2.00;;
25667;SDS011;18003;-33.830;151.202;2022-09-09T09:48:05;2.70;;;2.00;;
25667;SDS011;18003;-33.830;151.202;2022-09-09T09:50:39;3.72;;;2.10;;
25667;SDS011;18003;-33.830;151.202;2022-09-09T09:53:32;4.15;;;2.20;;
25667;SDS011;18003;-33.830;151.202;2022-09-09T09:56:11;2.20;;;1.87;;
25667;SDS011;18003;-33.830;151.202;2022-09-09T10:01:26;3.27;;;1.92;;
25667;SDS011;18003;-33.830;151.202;2022-09-09T10:04:00;2.08;;;1.80;;
25667;SDS011;18003;-33.830;151.202;2022-09-09T10:09:01;2.67;;;1.80;;
25667;SDS011;18003;-33.830;151.202;2022-09-09T10:11:54;4.62;;;1.75;;
25667;SDS011;18003;-33.830;151.202;2022-09-09T10:28:54;3.12;;;1.70;;
25667;SDS011;18003;-33.830;151.202;2022-09-09T10:34:40;2.67;;;1.60;;
25667;SDS011;18003;-33.830;151.202;2022-09-09T10:37:19;2.77;;;1.70;;
25667;SDS011;18003;-33.830;151.202;2022-09-09T10:39:44;1.65;;;1.50;;
25667;SDS011;18003;-33.830;151.202;2022-09-09T10:42:14;2.75;;;1.50;;
25667;SDS011;18003;-33.830;151.202;2022-09-09T10:44:52;1.70;;;1.60;;
25667;SDS011;18003;-33.830;151.202;2022-09-09T10:53:15;2.95;;;1.70;;
25667;SDS011;18003;-33.830;151.202;2022-09-09T10:55:48;3.67;;;1.70;;
25667;SDS011;18003;-33.830;151.202;2022-09-09T10:58:31;2.02;;;1.60;;
25667;SDS011;18003;-33.830;151.202;2022-09-09T11:01:12;1.60;;;1.50;;
25667;SDS011;18003;-33.830;151.202;2022-09-09T11:03:44;2.75;;;1.40;;
25667;SDS011;18003;-33.830;151.202;2022-09-09T11:06:22;2.33;;;1.40;;
25667;SDS011;18003;-33.830;151.202;2022-09-09T11:08:48;2.50;;;1.82;;
25667;SDS011;18003;-33.830;151.202;2022-09-09T11:11:32;2.15;;;1.40;;
25667;SDS011;18003;-33.830;151.202;2022-09-09T11:16:46;1.77;;;1.50;;
25667;SDS011;18003;-33.830;151.202;2022-09-09T11:21:45;1.70;;;1.30;;
25667;SDS011;18003;-33.830;151.202;2022-09-09T11:24:37;1.50;;;1.40;;
25667;SDS011;18003;-33.830;151.202;2022-09-09T11:35:49;1.52;;;1.20;;
25667;SDS011;18003;-33.830;151.202;2022-09-09T11:41:06;1.82;;;1.20;;
25667;SDS011;18003;-33.830;151.202;2022-09-09T11:43:43;3.02;;;1.27;;
25667;SDS011;18003;-33.830;151.202;2022-09-09T11:46:15;1.45;;;1.22;;
25667;SDS011;18003;-33.830;151.202;2022-09-09T11:48:59;3.72;;;1.50;;
25667;SDS011;18003;-33.830;151.202;2022-09-09T11:51:31;2.00;;;1.27;;
25667;SDS011;18003;-33.830;151.202;2022-09-09T11:54:03;1.95;;;1.27;;
25667;SDS011;18003;-33.830;151.202;2022-09-09T11:56:41;2.98;;;1.45;;
25667;SDS011;18003;-33.830;151.202;2022-09-09T12:02:00;1.22;;;1.12;;
25667;SDS011;18003;-33.830;151.202;2022-09-09T12:14:54;1.30;;;1.20;;
25667;SDS011;18003;-33.830;151.202;2022-09-09T12:17:26;2.25;;;1.10;;
25667;SDS011;18003;-33.830;151.202;2022-09-09T12:20:06;1.57;;;1.30;;
25667;SDS011;18003;-33.830;151.202;2022-09-09T12:23:02;1.50;;;1.30;;
25667;SDS011;18003;-33.830;151.202;2022-09-09T12:25:47;2.27;;;1.20;;
25667;SDS011;18003;-33.830;151.202;2022-09-09T12:35:51;1.27;;;1.17;;
25667;SDS011;18003;-33.830;151.202;2022-09-09T12:38:29;3.25;;;1.20;;
25667;SDS011;18003;-33.830;151.202;2022-09-09T12:41:04;1.22;;;1.12;;
25667;SDS011;18003;-33.830;151.202;2022-09-09T12:43:35;1.22;;;1.12;;
25667;SDS011;18003;-33.830;151.202;2022-09-09T12:46:07;1.35;;;1.20;;
25667;SDS011;18003;-33.830;151.202;2022-09-09T12:48:38;1.30;;;1.20;;
25667;SDS011;18003;-33.830;151.202;2022-09-09T12:51:45;1.00;;;1.00;;
25667;SDS011;18003;-33.830;151.202;2022-09-09T12:53:55;1.10;;;1.00;;
25667;SDS011;18003;-33.830;151.202;2022-09-09T12:56:30;1.10;;;1.00;;
25667;SDS011;18003;-33.830;151.202;2022-09-09T12:59:00;1.12;;;1.10;;
25667;SDS011;18003;-33.830;151.202;2022-09-09T13:01:30;1.77;;;1.17;;
25667;SDS011;18003;-33.830;151.202;2022-09-09T13:04:01;1.22;;;1.10;;
25667;SDS011;18003;-33.830;151.202;2022-09-09T13:06:32;2.55;;;1.20;;
25667;SDS011;18003;-33.830;151.202;2022-09-09T13:09:02;1.47;;;1.00;;
25667;SDS011;18003;-33.830;151.202;2022-09-09T13:14:17;1.10;;;1.10;;
25667;SDS011;18003;-33.830;151.202;2022-09-09T13:16:53;2.33;;;1.10;;
25667;SDS011;18003;-33.830;151.202;2022-09-09T13:19:28;2.05;;;1.30;;
25667;SDS011;18003;-33.830;151.202;2022-09-09T13:21:59;2.12;;;1.40;;
25667;SDS011;18003;-33.830;151.202;2022-09-09T13:24:31;0.95;;;0.95;;
25667;SDS011;18003;-33.830;151.202;2022-09-09T13:27:03;1.27;;;1.17;;
25667;SDS011;18003;-33.830;151.202;2022-09-09T13:32:04;1.10;;;1.10;;
25667;SDS011;18003;-33.830;151.202;2022-09-09T13:37:17;0.90;;;0.90;;
25667;SDS011;18003;-33.830;151.202;2022-09-09T13:39:39;0.80;;;0.78;;
25667;SDS011;18003;-33.830;151.202;2022-09-09T13:42:21;1.15;;;1.00;;
25667;SDS011;18003;-33.830;151.202;2022-09-09T13:44:52;0.90;;;0.90;;
25667;SDS011;18003;-33.830;151.202;2022-09-09T13:47:33;0.80;;;0.80;;
25667;SDS011;18003;-33.830;151.202;2022-09-09T13:49:58;0.80;;;0.80;;
25667;SDS011;18003;-33.830;151.202;2022-09-09T13:52:29;0.90;;;0.90;;
25667;SDS011;18003;-33.830;151.202;2022-09-09T13:54:59;0.90;;;0.90;;
25667;SDS011;18003;-33.830;151.202;2022-09-09T13:57:29;1.32;;;1.07;;
25667;SDS011;18003;-33.830;151.202;2022-09-09T14:00:00;1.67;;;0.90;;
25667;SDS011;18003;-33.830;151.202;2022-09-09T14:02:31;1.10;;;0.82;;
25667;SDS011;18003;-33.830;151.202;2022-09-09T14:05:01;0.80;;;0.80;;
25667;SDS011;18003;-33.830;151.202;2022-09-09T14:07:32;1.20;;;0.90;;
25667;SDS011;18003;-33.830;151.202;2022-09-09T14:10:02;0.82;;;0.82;;
25667;SDS011;18003;-33.830;151.202;2022-09-09T14:12:32;1.02;;;1.00;;
25667;SDS011;18003;-33.830;151.202;2022-09-09T14:15:03;0.95;;;0.95;;
25667;SDS011;18003;-33.830;151.202;2022-09-09T14:20:06;1.20;;;1.10;;
25667;SDS011;18003;-33.830;151.202;2022-09-09T14:22:40;0.85;;;0.85;;
25667;SDS011;18003;-33.830;151.202;2022-09-09T14:25:11;1.00;;;1.00;;
25667;SDS011;18003;-33.830;151.202;2022-09-09T14:27:41;0.80;;;0.80;;
25667;SDS011;18003;-33.830;151.202;2022-09-09T14:30:12;1.12;;;0.90;;
25667;SDS011;18003;-33.830;151.202;2022-09-09T14:32:43;1.20;;;1.00;;
25667;SDS011;18003;-33.830;151.202;2022-09-09T14:35:13;0.80;;;0.80;;
25667;SDS011;18003;-33.830;151.202;2022-09-09T14:37:44;0.90;;;0.90;;
25667;SDS011;18003;-33.830;151.202;2022-09-09T14:40:15;0.80;;;0.80;;
25667;SDS011;18003;-33.830;151.202;2022-09-09T14:42:45;1.05;;;0.90;;
25667;SDS011;18003;-33.830;151.202;2022-09-09T14:45:15;1.05;;;0.90;;
25667;SDS011;18003;-33.830;151.202;2022-09-09T14:47:50;0.90;;;0.90;;
25667;SDS011;18003;-33.830;151.202;2022-09-09T14:50:33;0.90;;;0.90;;
25667;SDS011;18003;-33.830;151.202;2022-09-09T14:53:07;0.90;;;0.90;;
25667;SDS011;18003;-33.830;151.202;2022-09-09T14:55:47;1.00;;;0.90;;
25667;SDS011;18003;-33.830;151.202;2022-09-09T14:58:25;0.80;;;0.80;;
25667;SDS011;18003;-33.830;151.202;2022-09-09T15:01:07;0.78;;;0.78;;
25667;SDS011;18003;-33.830;151.202;2022-09-09T15:03:33;0.93;;;0.80;;
25667;SDS011;18003;-33.830;151.202;2022-09-09T15:06:12;0.80;;;0.80;;
25667;SDS011;18003;-33.830;151.202;2022-09-09T15:08:49;0.80;;;0.80;;
25667;SDS011;18003;-33.830;151.202;2022-09-09T15:11:30;0.95;;;0.80;;
25667;SDS011;18003;-33.830;151.202;2022-09-09T15:13:57;0.80;;;0.80;;
25667;SDS011;18003;-33.830;151.202;2022-09-09T15:16:27;0.95;;;0.90;;
25667;SDS011;18003;-33.830;151.202;2022-09-09T15:18:58;1.15;;;0.72;;
25667;SDS011;18003;-33.830;151.202;2022-09-09T15:21:35;0.80;;;0.80;;
25667;SDS011;18003;-33.830;151.202;2022-09-09T15:24:01;0.80;;;0.80;;
25667;SDS011;18003;-33.830;151.202;2022-09-09T15:26:31;0.70;;;0.70;;
25667;SDS011;18003;-33.830;151.202;2022-09-09T15:31:51;2.27;;;0.90;;
25667;SDS011;18003;-33.830;151.202;2022-09-09T15:34:23;0.70;;;0.70;;
25667;SDS011;18003;-33.830;151.202;2022-09-09T15:36:53;0.70;;;0.70;;
25667;SDS011;18003;-33.830;151.202;2022-09-09T15:39:23;1.30;;;0.85;;
25667;SDS011;18003;-33.830;151.202;2022-09-09T15:41:56;1.98;;;0.80;;
25667;SDS011;18003;-33.830;151.202;2022-09-09T15:44:43;0.82;;;0.82;;
25667;SDS011;18003;-33.830;151.202;2022-09-09T15:47:13;0.80;;;0.80;;
25667;SDS011;18003;-33.830;151.202;2022-09-09T15:49:43;0.80;;;0.80;;
25667;SDS011;18003;-33.830;151.202;2022-09-09T15:52:13;1.40;;;0.80;;
25667;SDS011;18003;-33.830;151.202;2022-09-09T15:54:43;0.78;;;0.78;;
25667;SDS011;18003;-33.830;151.202;2022-09-09T15:57:13;0.93;;;0.80;;
25667;SDS011;18003;-33.830;151.202;2022-09-09T15:59:43;0.80;;;0.80;;
25667;SDS011;18003;-33.830;151.202;2022-09-09T16:02:13;0.70;;;0.70;;
25667;SDS011;18003;-33.830;151.202;2022-09-09T16:07:27;1.35;;;0.70;;
25667;SDS011;18003;-33.830;151.202;2022-09-09T16:09:57;0.82;;;0.70;;
25667;SDS011;18003;-33.830;151.202;2022-09-09T16:12:47;0.70;;;0.70;;
25667;SDS011;18003;-33.830;151.202;2022-09-09T16:17:53;0.82;;;0.70;;
25667;SDS011;18003;-33.830;151.202;2022-09-09T16:20:40;0.93;;;0.80;;
25667;SDS011;18003;-33.830;151.202;2022-09-09T16:23:10;0.88;;;0.70;;
25667;SDS011;18003;-33.830;151.202;2022-09-09T16:25:40;2.02;;;0.60;;
25667;SDS011;18003;-33.830;151.202;2022-09-09T16:28:11;1.17;;;0.60;;
25667;SDS011;18003;-33.830;151.202;2022-09-09T16:30:41;1.27;;;0.80;;
25667;SDS011;18003;-33.830;151.202;2022-09-09T16:33:23;0.70;;;0.70;;
25667;SDS011;18003;-33.830;151.202;2022-09-09T16:35:54;0.70;;;0.70;;
25667;SDS011;18003;-33.830;151.202;2022-09-09T16:38:24;1.20;;;0.70;;
25667;SDS011;18003;-33.830;151.202;2022-09-09T16:40:58;0.72;;;0.70;;
25667;SDS011;18003;-33.830;151.202;2022-09-09T16:43:43;0.75;;;0.75;;
25667;SDS011;18003;-33.830;151.202;2022-09-09T16:46:16;0.70;;;0.70;;
25667;SDS011;18003;-33.830;151.202;2022-09-09T16:48:47;0.95;;;0.80;;
25667;SDS011;18003;-33.830;151.202;2022-09-09T16:51:26;0.70;;;0.70;;
25667;SDS011;18003;-33.830;151.202;2022-09-09T16:53:53;0.95;;;0.90;;
25667;SDS011;18003;-33.830;151.202;2022-09-09T16:56:24;0.70;;;0.70;;
25667;SDS011;18003;-33.830;151.202;2022-09-09T16:58:58;1.10;;;0.90;;
25667;SDS011;18003;-33.830;151.202;2022-09-09T17:01:29;0.70;;;0.70;;
25667;SDS011;18003;-33.830;151.202;2022-09-09T17:04:02;1.17;;;0.60;;
25667;SDS011;18003;-33.830;151.202;2022-09-09T17:06:34;1.60;;;0.72;;
25667;SDS011;18003;-33.830;151.202;2022-09-09T17:09:06;0.70;;;0.70;;
25667;SDS011;18003;-33.830;151.202;2022-09-09T17:14:11;2.95;;;0.88;;
25667;SDS011;18003;-33.830;151.202;2022-09-09T17:16:41;1.55;;;0.78;;
25667;SDS011;18003;-33.830;151.202;2022-09-09T17:19:11;0.70;;;0.70;;
25667;SDS011;18003;-33.830;151.202;2022-09-09T17:22:06;1.20;;;0.72;;
25667;SDS011;18003;-33.830;151.202;2022-09-09T17:24:33;1.02;;;0.68;;
25667;SDS011;18003;-33.830;151.202;2022-09-09T17:27:05;0.93;;;0.90;;
25667;SDS011;18003;-33.830;151.202;2022-09-09T17:29:35;0.72;;;0.72;;